sensor_id;sensor_type;location;lat;lon;timestamp;P1;durP1;ratioP1;P2;durP2;ratioP2
24617;SDS011;12762;51.730;5.356;2023-03-13T00:03:51;19.80;;;3.53;;
24617;SDS011;12762;51.730;5.356;2023-03-13T00:06:22;23.73;;;4.40;;
24617;SDS011;12762;51.730;5.356;2023-03-13T00:08:50;14.10;;;3.70;;
24617;SDS011;12762;51.730;5.356;2023-03-13T00:11:17;21.83;;;3.40;;
24617;SDS011;12762;51.730;5.356;2023-03-13T00:13:44;15.30;;;3.90;;
24617;SDS011;12762;51.730;5.356;2023-03-13T00:16:12;15.23;;;3.73;;
24617;SDS011;12762;51.730;5.356;2023-03-13T00:18:44;14.83;;;3.43;;
24617;SDS011;12762;51.730;5.356;2023-03-13T00:21:12;19.07;;;3.37;;
24617;SDS011;12762;51.730;5.356;2023-03-13T00:23:39;21.47;;;3.67;;
24617;SDS011;12762;51.730;5.356;2023-03-13T00:26:08;15.97;;;3.20;;
24617;SDS011;12762;51.730;5.356;2023-03-13T00:28:37;15.47;;;3.57;;
24617;SDS011;12762;51.730;5.356;2023-03-13T00:31:06;17.67;;;3.90;;
24617;SDS011;12762;51.730;5.356;2023-03-13T00:33:36;17.87;;;3.00;;
24617;SDS011;12762;51.730;5.356;2023-03-13T00:36:08;15.00;;;4.07;;
24617;SDS011;12762;51.730;5.356;2023-03-13T00:38:50;16.63;;;3.83;;
24617;SDS011;12762;51.730;5.356;2023-03-13T00:41:19;16.80;;;3.53;;
24617;SDS011;12762;51.730;5.356;2023-03-13T00:43:49;16.70;;;3.10;;
24617;SDS011;12762;51.730;5.356;2023-03-13T00:46:17;17.27;;;3.83;;
24617;SDS011;12762;51.730;5.356;2023-03-13T00:48:46;22.17;;;3.63;;
24617;SDS011;12762;51.730;5.356;2023-03-13T00:51:15;22.13;;;4.13;;
24617;SDS011;12762;51.730;5.356;2023-03-13T00:53:45;24.57;;;3.47;;
24617;SDS011;12762;51.730;5.356;2023-03-13T00:56:13;18.23;;;3.10;;
24617;SDS011;12762;51.730;5.356;2023-03-13T00:58:42;15.07;;;3.50;;
24617;SDS011;12762;51.730;5.356;2023-03-13T01:03:40;16.03;;;3.63;;
24617;SDS011;12762;51.730;5.356;2023-03-13T01:06:10;14.30;;;3.67;;
24617;SDS011;12762;51.730;5.356;2023-03-13T01:08:39;14.63;;;3.40;;
24617;SDS011;12762;51.730;5.356;2023-03-13T01:11:08;12.37;;;3.10;;
24617;SDS011;12762;51.730;5.356;2023-03-13T01:13:36;14.23;;;3.20;;
24617;SDS011;12762;51.730;5.356;2023-03-13T01:16:05;12.33;;;3.00;;
24617;SDS011;12762;51.730;5.356;2023-03-13T01:18:40;18.33;;;3.63;;
24617;SDS011;12762;51.730;5.356;2023-03-13T01:21:10;16.40;;;3.53;;
24617;SDS011;12762;51.730;5.356;2023-03-13T01:23:37;15.07;;;3.13;;
24617;SDS011;12762;51.730;5.356;2023-03-13T01:26:04;11.83;;;3.00;;
24617;SDS011;12762;51.730;5.356;2023-03-13T01:28:32;16.33;;;3.80;;
24617;SDS011;12762;51.730;5.356;2023-03-13T01:31:00;11.07;;;3.83;;
24617;SDS011;12762;51.730;5.356;2023-03-13T01:33:35;13.60;;;3.23;;
24617;SDS011;12762;51.730;5.356;2023-03-13T01:36:02;11.60;;;2.80;;
24617;SDS011;12762;51.730;5.356;2023-03-13T01:38:29;13.67;;;3.33;;
24617;SDS011;12762;51.730;5.356;2023-03-13T01:40:56;15.17;;;3.03;;
24617;SDS011;12762;51.730;5.356;2023-03-13T01:43:24;13.53;;;3.03;;
24617;SDS011;12762;51.730;5.356;2023-03-13T01:51:51;12.63;;;2.90;;
24617;SDS011;12762;51.730;5.356;2023-03-13T01:54:31;9.90;;;2.60;;
24617;SDS011;12762;51.730;5.356;2023-03-13T01:59:48;11.90;;;3.40;;
24617;SDS011;12762;51.730;5.356;2023-03-13T02:02:21;13.83;;;2.70;;
24617;SDS011;12762;51.730;5.356;2023-03-13T02:04:49;9.20;;;2.90;;
24617;SDS011;12762;51.730;5.356;2023-03-13T02:07:25;13.33;;;3.47;;
24617;SDS011;12762;51.730;5.356;2023-03-13T02:10:02;9.60;;;3.07;;
24617;SDS011;12762;51.730;5.356;2023-03-13T02:12:31;11.73;;;3.23;;
24617;SDS011;12762;51.730;5.356;2023-03-13T02:15:10;12.53;;;3.50;;
24617;SDS011;12762;51.730;5.356;2023-03-13T02:17:41;11.90;;;3.73;;
24617;SDS011;12762;51.730;5.356;2023-03-13T02:20:10;7.77;;;2.77;;
24617;SDS011;12762;51.730;5.356;2023-03-13T02:23:00;12.50;;;3.53;;
24617;SDS011;12762;51.730;5.356;2023-03-13T02:25:52;9.23;;;3.33;;
24617;SDS011;12762;51.730;5.356;2023-03-13T02:30:50;10.77;;;3.27;;
24617;SDS011;12762;51.730;5.356;2023-03-13T02:33:19;10.13;;;3.90;;
24617;SDS011;12762;51.730;5.356;2023-03-13T02:35:51;10.77;;;4.10;;
24617;SDS011;12762;51.730;5.356;2023-03-13T02:38:23;10.67;;;3.50;;
24617;SDS011;12762;51.730;5.356;2023-03-13T02:40:52;11.10;;;4.07;;
24617;SDS011;12762;51.730;5.356;2023-03-13T02:43:25;8.17;;;3.73;;
24617;SDS011;12762;51.730;5.356;2023-03-13T02:46:02;9.90;;;4.00;;
24617;SDS011;12762;51.730;5.356;2023-03-13T02:51:24;11.93;;;4.47;;
24617;SDS011;12762;51.730;5.356;2023-03-13T02:53:59;12.90;;;4.13;;
24617;SDS011;12762;51.730;5.356;2023-03-13T02:56:32;10.97;;;4.43;;
24617;SDS011;12762;51.730;5.356;2023-03-13T02:59:01;11.40;;;4.57;;
24617;SDS011;12762;51.730;5.356;2023-03-13T03:01:28;9.83;;;4.40;;
24617;SDS011;12762;51.730;5.356;2023-03-13T03:03:58;9.70;;;4.83;;
24617;SDS011;12762;51.730;5.356;2023-03-13T03:06:25;11.43;;;4.63;;
24617;SDS011;12762;51.730;5.356;2023-03-13T03:08:54;9.23;;;4.90;;
24617;SDS011;12762;51.730;5.356;2023-03-13T03:11:21;12.27;;;4.97;;
24617;SDS011;12762;51.730;5.356;2023-03-13T03:13:48;11.27;;;5.17;;
24617;SDS011;12762;51.730;5.356;2023-03-13T03:16:14;10.87;;;5.07;;
24617;SDS011;12762;51.730;5.356;2023-03-13T03:18:44;12.27;;;6.30;;
24617;SDS011;12762;51.730;5.356;2023-03-13T03:21:11;10.57;;;6.10;;
24617;SDS011;12762;51.730;5.356;2023-03-13T03:23:38;10.50;;;6.13;;
24617;SDS011;12762;51.730;5.356;2023-03-13T03:26:05;12.63;;;6.97;;
24617;SDS011;12762;51.730;5.356;2023-03-13T03:28:32;12.73;;;6.50;;
24617;SDS011;12762;51.730;5.356;2023-03-13T03:31:06;12.17;;;6.30;;
24617;SDS011;12762;51.730;5.356;2023-03-13T03:33:34;12.77;;;6.87;;
24617;SDS011;12762;51.730;5.356;2023-03-13T03:36:03;10.60;;;5.93;;
24617;SDS011;12762;51.730;5.356;2023-03-13T03:38:32;9.80;;;6.10;;
24617;SDS011;12762;51.730;5.356;2023-03-13T03:40:59;11.47;;;6.63;;
24617;SDS011;12762;51.730;5.356;2023-03-13T03:43:26;14.40;;;6.50;;
24617;SDS011;12762;51.730;5.356;2023-03-13T03:45:53;10.60;;;6.03;;
24617;SDS011;12762;51.730;5.356;2023-03-13T03:48:20;9.97;;;6.23;;
24617;SDS011;12762;51.730;5.356;2023-03-13T03:50:47;10.03;;;6.10;;
24617;SDS011;12762;51.730;5.356;2023-03-13T03:53:14;9.57;;;6.07;;
24617;SDS011;12762;51.730;5.356;2023-03-13T03:55:41;11.40;;;6.70;;
24617;SDS011;12762;51.730;5.356;2023-03-13T03:58:10;9.50;;;5.50;;
24617;SDS011;12762;51.730;5.356;2023-03-13T04:00:37;11.40;;;5.97;;
24617;SDS011;12762;51.730;5.356;2023-03-13T04:03:04;9.37;;;5.87;;
24617;SDS011;12762;51.730;5.356;2023-03-13T04:05:31;8.87;;;5.23;;
24617;SDS011;12762;51.730;5.356;2023-03-13T04:08:03;10.03;;;4.80;;
24617;SDS011;12762;51.730;5.356;2023-03-13T04:10:30;9.30;;;5.20;;
24617;SDS011;12762;51.730;5.356;2023-03-13T04:12:57;9.30;;;5.07;;
24617;SDS011;12762;51.730;5.356;2023-03-13T04:15:24;11.57;;;5.40;;
24617;SDS011;12762;51.730;5.356;2023-03-13T04:17:51;8.50;;;4.80;;
24617;SDS011;12762;51.730;5.356;2023-03-13T04:20:17;10.60;;;4.90;;
24617;SDS011;12762;51.730;5.356;2023-03-13T04:22:44;10.17;;;5.20;;
24617;SDS011;12762;51.730;5.356;2023-03-13T04:25:11;9.57;;;4.53;;
24617;SDS011;12762;51.730;5.356;2023-03-13T04:27:38;8.70;;;4.40;;
24617;SDS011;12762;51.730;5.356;2023-03-13T04:30:05;11.10;;;4.80;;
24617;SDS011;12762;51.730;5.356;2023-03-13T04:32:32;15.10;;;5.50;;
24617;SDS011;12762;51.730;5.356;2023-03-13T04:34:59;9.87;;;4.90;;
24617;SDS011;12762;51.730;5.356;2023-03-13T04:37:26;11.13;;;4.50;;
24617;SDS011;12762;51.730;5.356;2023-03-13T04:39:53;12.37;;;4.80;;
24617;SDS011;12762;51.730;5.356;2023-03-13T04:42:19;7.50;;;4.23;;
24617;SDS011;12762;51.730;5.356;2023-03-13T04:44:46;11.17;;;4.57;;
24617;SDS011;12762;51.730;5.356;2023-03-13T04:47:13;9.73;;;4.40;;
24617;SDS011;12762;51.730;5.356;2023-03-13T04:49:40;10.00;;;4.83;;
24617;SDS011;12762;51.730;5.356;2023-03-13T04:52:07;6.90;;;3.73;;
24617;SDS011;12762;51.730;5.356;2023-03-13T04:54:34;8.97;;;3.87;;
24617;SDS011;12762;51.730;5.356;2023-03-13T04:57:01;9.00;;;4.33;;
24617;SDS011;12762;51.730;5.356;2023-03-13T04:59:27;8.53;;;4.13;;
24617;SDS011;12762;51.730;5.356;2023-03-13T05:01:54;8.83;;;3.97;;
24617;SDS011;12762;51.730;5.356;2023-03-13T05:04:27;7.27;;;3.43;;
24617;SDS011;12762;51.730;5.356;2023-03-13T05:06:56;9.00;;;4.27;;
24617;SDS011;12762;51.730;5.356;2023-03-13T05:09:23;8.60;;;3.17;;
24617;SDS011;12762;51.730;5.356;2023-03-13T05:11:53;7.53;;;3.60;;
24617;SDS011;12762;51.730;5.356;2023-03-13T05:14:23;7.63;;;3.80;;
24617;SDS011;12762;51.730;5.356;2023-03-13T05:16:50;8.70;;;3.53;;
24617;SDS011;12762;51.730;5.356;2023-03-13T05:19:19;6.73;;;3.70;;
24617;SDS011;12762;51.730;5.356;2023-03-13T05:21:46;8.33;;;3.57;;
24617;SDS011;12762;51.730;5.356;2023-03-13T05:24:13;9.20;;;3.50;;
24617;SDS011;12762;51.730;5.356;2023-03-13T05:26:40;10.93;;;3.67;;
24617;SDS011;12762;51.730;5.356;2023-03-13T05:29:06;5.43;;;3.23;;
24617;SDS011;12762;51.730;5.356;2023-03-13T05:31:33;5.67;;;3.20;;
24617;SDS011;12762;51.730;5.356;2023-03-13T05:34:00;6.17;;;3.10;;
24617;SDS011;12762;51.730;5.356;2023-03-13T05:36:27;5.93;;;3.20;;
24617;SDS011;12762;51.730;5.356;2023-03-13T05:38:54;7.60;;;3.37;;
24617;SDS011;12762;51.730;5.356;2023-03-13T05:41:20;7.23;;;3.43;;
24617;SDS011;12762;51.730;5.356;2023-03-13T05:43:47;8.23;;;3.00;;
24617;SDS011;12762;51.730;5.356;2023-03-13T05:46:14;4.40;;;3.17;;
24617;SDS011;12762;51.730;5.356;2023-03-13T05:48:41;8.37;;;2.97;;
24617;SDS011;12762;51.730;5.356;2023-03-13T05:51:08;5.37;;;2.80;;
24617;SDS011;12762;51.730;5.356;2023-03-13T05:53:35;6.90;;;2.93;;
24617;SDS011;12762;51.730;5.356;2023-03-13T05:56:01;6.07;;;2.83;;
24617;SDS011;12762;51.730;5.356;2023-03-13T05:58:28;5.00;;;2.93;;
24617;SDS011;12762;51.730;5.356;2023-03-13T06:00:55;6.17;;;2.70;;
24617;SDS011;12762;51.730;5.356;2023-03-13T06:03:22;6.57;;;3.00;;
24617;SDS011;12762;51.730;5.356;2023-03-13T06:05:49;6.57;;;2.73;;
24617;SDS011;12762;51.730;5.356;2023-03-13T06:08:21;7.47;;;2.93;;
24617;SDS011;12762;51.730;5.356;2023-03-13T06:10:48;7.67;;;2.87;;
24617;SDS011;12762;51.730;5.356;2023-03-13T06:13:15;4.57;;;2.07;;
24617;SDS011;12762;51.730;5.356;2023-03-13T06:15:52;6.60;;;2.43;;
24617;SDS011;12762;51.730;5.356;2023-03-13T06:18:20;7.33;;;2.70;;
24617;SDS011;12762;51.730;5.356;2023-03-13T06:20:48;4.33;;;2.30;;
24617;SDS011;12762;51.730;5.356;2023-03-13T06:23:21;8.93;;;2.50;;
24617;SDS011;12762;51.730;5.356;2023-03-13T06:25:47;10.20;;;3.17;;
24617;SDS011;12762;51.730;5.356;2023-03-13T06:28:15;10.40;;;2.33;;
24617;SDS011;12762;51.730;5.356;2023-03-13T06:30:42;8.10;;;2.33;;
24617;SDS011;12762;51.730;5.356;2023-03-13T06:33:09;7.50;;;2.30;;
24617;SDS011;12762;51.730;5.356;2023-03-13T06:35:38;8.93;;;2.53;;
24617;SDS011;12762;51.730;5.356;2023-03-13T06:38:21;9.50;;;2.53;;
24617;SDS011;12762;51.730;5.356;2023-03-13T06:40:48;7.03;;;2.40;;
24617;SDS011;12762;51.730;5.356;2023-03-13T06:43:15;7.13;;;2.70;;
24617;SDS011;12762;51.730;5.356;2023-03-13T06:45:41;6.37;;;2.47;;
24617;SDS011;12762;51.730;5.356;2023-03-13T06:48:09;8.17;;;2.50;;
24617;SDS011;12762;51.730;5.356;2023-03-13T06:50:38;9.33;;;2.50;;
24617;SDS011;12762;51.730;5.356;2023-03-13T06:53:06;7.87;;;2.40;;
24617;SDS011;12762;51.730;5.356;2023-03-13T06:55:33;9.50;;;2.60;;
24617;SDS011;12762;51.730;5.356;2023-03-13T06:58:02;7.13;;;2.50;;
24617;SDS011;12762;51.730;5.356;2023-03-13T07:00:32;5.97;;;2.10;;
24617;SDS011;12762;51.730;5.356;2023-03-13T07:03:00;7.70;;;2.60;;
24617;SDS011;12762;51.730;5.356;2023-03-13T07:05:26;5.63;;;2.10;;
24617;SDS011;12762;51.730;5.356;2023-03-13T07:07:53;7.43;;;2.30;;
24617;SDS011;12762;51.730;5.356;2023-03-13T07:10:20;7.60;;;2.60;;
24617;SDS011;12762;51.730;5.356;2023-03-13T07:12:48;6.87;;;2.60;;
24617;SDS011;12762;51.730;5.356;2023-03-13T07:15:15;6.90;;;2.67;;
24617;SDS011;12762;51.730;5.356;2023-03-13T07:17:42;6.63;;;2.20;;
24617;SDS011;12762;51.730;5.356;2023-03-13T07:20:09;4.67;;;2.20;;
24617;SDS011;12762;51.730;5.356;2023-03-13T07:22:36;6.57;;;2.30;;
24617;SDS011;12762;51.730;5.356;2023-03-13T07:25:03;5.17;;;2.17;;
24617;SDS011;12762;51.730;5.356;2023-03-13T07:27:31;9.10;;;2.43;;
24617;SDS011;12762;51.730;5.356;2023-03-13T07:29:58;9.67;;;2.20;;
24617;SDS011;12762;51.730;5.356;2023-03-13T07:32:24;6.77;;;2.10;;
24617;SDS011;12762;51.730;5.356;2023-03-13T07:34:56;8.73;;;2.20;;
24617;SDS011;12762;51.730;5.356;2023-03-13T07:37:22;7.47;;;2.20;;
24617;SDS011;12762;51.730;5.356;2023-03-13T07:39:49;6.73;;;2.60;;
24617;SDS011;12762;51.730;5.356;2023-03-13T07:42:16;10.60;;;2.83;;
24617;SDS011;12762;51.730;5.356;2023-03-13T07:44:43;6.60;;;2.20;;
24617;SDS011;12762;51.730;5.356;2023-03-13T07:47:10;7.23;;;2.37;;
24617;SDS011;12762;51.730;5.356;2023-03-13T07:49:39;10.80;;;2.27;;
24617;SDS011;12762;51.730;5.356;2023-03-13T07:52:09;6.93;;;2.10;;
24617;SDS011;12762;51.730;5.356;2023-03-13T07:54:36;6.63;;;2.00;;
24617;SDS011;12762;51.730;5.356;2023-03-13T07:57:03;7.10;;;2.07;;
24617;SDS011;12762;51.730;5.356;2023-03-13T07:59:30;6.20;;;2.20;;
24617;SDS011;12762;51.730;5.356;2023-03-13T08:01:57;7.20;;;2.10;;
24617;SDS011;12762;51.730;5.356;2023-03-13T08:04:24;5.13;;;2.10;;
24617;SDS011;12762;51.730;5.356;2023-03-13T08:06:51;6.77;;;2.27;;
24617;SDS011;12762;51.730;5.356;2023-03-13T08:09:19;9.13;;;2.47;;
24617;SDS011;12762;51.730;5.356;2023-03-13T08:11:46;6.37;;;1.90;;
24617;SDS011;12762;51.730;5.356;2023-03-13T08:14:14;5.80;;;2.23;;
24617;SDS011;12762;51.730;5.356;2023-03-13T08:16:40;9.33;;;2.30;;
24617;SDS011;12762;51.730;5.356;2023-03-13T08:19:08;5.23;;;2.07;;
24617;SDS011;12762;51.730;5.356;2023-03-13T08:21:35;7.20;;;2.03;;
24617;SDS011;12762;51.730;5.356;2023-03-13T08:24:05;7.20;;;2.43;;
24617;SDS011;12762;51.730;5.356;2023-03-13T08:26:34;8.57;;;2.73;;
24617;SDS011;12762;51.730;5.356;2023-03-13T08:29:03;8.40;;;2.27;;
24617;SDS011;12762;51.730;5.356;2023-03-13T08:31:36;7.50;;;2.30;;
24617;SDS011;12762;51.730;5.356;2023-03-13T08:34:11;5.53;;;2.80;;
24617;SDS011;12762;51.730;5.356;2023-03-13T08:36:38;9.63;;;2.70;;
24617;SDS011;12762;51.730;5.356;2023-03-13T08:39:08;7.93;;;2.00;;
24617;SDS011;12762;51.730;5.356;2023-03-13T08:41:41;6.90;;;2.10;;
24617;SDS011;12762;51.730;5.356;2023-03-13T08:44:09;7.23;;;2.50;;
24617;SDS011;12762;51.730;5.356;2023-03-13T08:46:45;9.20;;;3.17;;
24617;SDS011;12762;51.730;5.356;2023-03-13T08:49:14;10.57;;;2.50;;
24617;SDS011;12762;51.730;5.356;2023-03-13T08:51:42;4.90;;;2.10;;
24617;SDS011;12762;51.730;5.356;2023-03-13T08:54:12;7.80;;;3.00;;
24617;SDS011;12762;51.730;5.356;2023-03-13T08:56:39;10.53;;;2.50;;
24617;SDS011;12762;51.730;5.356;2023-03-13T08:59:08;8.47;;;2.60;;
24617;SDS011;12762;51.730;5.356;2023-03-13T09:01:35;8.97;;;2.33;;
24617;SDS011;12762;51.730;5.356;2023-03-13T09:04:03;6.10;;;2.17;;
24617;SDS011;12762;51.730;5.356;2023-03-13T09:06:31;6.33;;;1.87;;
24617;SDS011;12762;51.730;5.356;2023-03-13T09:09:02;7.23;;;1.80;;
24617;SDS011;12762;51.730;5.356;2023-03-13T09:11:30;7.43;;;2.00;;
24617;SDS011;12762;51.730;5.356;2023-03-13T09:13:58;3.83;;;1.60;;
24617;SDS011;12762;51.730;5.356;2023-03-13T09:16:26;4.90;;;1.87;;
24617;SDS011;12762;51.730;5.356;2023-03-13T09:18:54;8.00;;;1.93;;
24617;SDS011;12762;51.730;5.356;2023-03-13T09:21:26;5.97;;;1.87;;
24617;SDS011;12762;51.730;5.356;2023-03-13T09:23:55;9.13;;;2.10;;
24617;SDS011;12762;51.730;5.356;2023-03-13T09:26:23;11.37;;;1.90;;
24617;SDS011;12762;51.730;5.356;2023-03-13T09:28:53;3.03;;;2.20;;
24617;SDS011;12762;51.730;5.356;2023-03-13T09:31:27;5.87;;;1.57;;
24617;SDS011;12762;51.730;5.356;2023-03-13T09:33:56;6.73;;;1.43;;
24617;SDS011;12762;51.730;5.356;2023-03-13T09:36:24;5.43;;;1.80;;
24617;SDS011;12762;51.730;5.356;2023-03-13T09:38:52;6.53;;;1.70;;
24617;SDS011;12762;51.730;5.356;2023-03-13T09:49:03;6.30;;;1.50;;
24617;SDS011;12762;51.730;5.356;2023-03-13T09:51:38;4.00;;;1.40;;
24617;SDS011;12762;51.730;5.356;2023-03-13T09:54:16;4.60;;;1.70;;
24617;SDS011;12762;51.730;5.356;2023-03-13T09:56:57;4.50;;;1.53;;
24617;SDS011;12762;51.730;5.356;2023-03-13T10:02:23;4.07;;;1.23;;
24617;SDS011;12762;51.730;5.356;2023-03-13T10:05:01;5.50;;;1.83;;
24617;SDS011;12762;51.730;5.356;2023-03-13T10:07:37;7.70;;;1.53;;
24617;SDS011;12762;51.730;5.356;2023-03-13T10:10:06;4.20;;;1.60;;
24617;SDS011;12762;51.730;5.356;2023-03-13T10:12:46;7.47;;;1.73;;
24617;SDS011;12762;51.730;5.356;2023-03-13T10:18:37;5.87;;;1.60;;
24617;SDS011;12762;51.730;5.356;2023-03-13T10:21:11;6.93;;;1.60;;
24617;SDS011;12762;51.730;5.356;2023-03-13T10:23:53;5.43;;;1.30;;
24617;SDS011;12762;51.730;5.356;2023-03-13T10:26:39;5.80;;;1.53;;
24617;SDS011;12762;51.730;5.356;2023-03-13T10:31:59;6.20;;;1.63;;
24617;SDS011;12762;51.730;5.356;2023-03-13T10:34:28;4.70;;;1.50;;
24617;SDS011;12762;51.730;5.356;2023-03-13T10:37:19;7.80;;;1.57;;
24617;SDS011;12762;51.730;5.356;2023-03-13T10:39:51;4.23;;;1.40;;
24617;SDS011;12762;51.730;5.356;2023-03-13T10:42:26;3.37;;;1.30;;
24617;SDS011;12762;51.730;5.356;2023-03-13T10:45:03;3.17;;;1.10;;
24617;SDS011;12762;51.730;5.356;2023-03-13T10:47:34;4.27;;;1.40;;
24617;SDS011;12762;51.730;5.356;2023-03-13T10:50:01;3.80;;;1.50;;
24617;SDS011;12762;51.730;5.356;2023-03-13T10:55:06;8.23;;;1.23;;
24617;SDS011;12762;51.730;5.356;2023-03-13T10:57:36;6.07;;;1.20;;
24617;SDS011;12762;51.730;5.356;2023-03-13T11:02:53;4.57;;;1.23;;
24617;SDS011;12762;51.730;5.356;2023-03-13T11:08:24;3.20;;;1.60;;
24617;SDS011;12762;51.730;5.356;2023-03-13T11:10:57;3.73;;;1.30;;
24617;SDS011;12762;51.730;5.356;2023-03-13T11:25:03;3.80;;;0.93;;
24617;SDS011;12762;51.730;5.356;2023-03-13T11:27:50;2.80;;;1.00;;
24617;SDS011;12762;51.730;5.356;2023-03-13T11:32:55;5.97;;;1.47;;
24617;SDS011;12762;51.730;5.356;2023-03-13T11:38:26;3.73;;;0.80;;
24617;SDS011;12762;51.730;5.356;2023-03-13T11:52:55;3.63;;;1.10;;
24617;SDS011;12762;51.730;5.356;2023-03-13T12:01:13;3.27;;;0.80;;
24617;SDS011;12762;51.730;5.356;2023-03-13T12:03:46;4.30;;;0.97;;
24617;SDS011;12762;51.730;5.356;2023-03-13T12:11:57;5.03;;;0.90;;
24617;SDS011;12762;51.730;5.356;2023-03-13T12:14:38;3.67;;;1.53;;
24617;SDS011;12762;51.730;5.356;2023-03-13T12:17:34;2.47;;;0.60;;
24617;SDS011;12762;51.730;5.356;2023-03-13T12:20:12;4.07;;;0.80;;
24617;SDS011;12762;51.730;5.356;2023-03-13T12:22:48;4.27;;;1.10;;
24617;SDS011;12762;51.730;5.356;2023-03-13T12:25:26;5.37;;;0.80;;
24617;SDS011;12762;51.730;5.356;2023-03-13T12:28:22;4.47;;;0.83;;
24617;SDS011;12762;51.730;5.356;2023-03-13T12:30:58;3.70;;;1.00;;
24617;SDS011;12762;51.730;5.356;2023-03-13T12:42:17;2.37;;;0.70;;
24617;SDS011;12762;51.730;5.356;2023-03-13T12:44:58;4.93;;;0.90;;
24617;SDS011;12762;51.730;5.356;2023-03-13T12:50:32;2.00;;;0.70;;
24617;SDS011;12762;51.730;5.356;2023-03-13T12:58:42;6.60;;;1.00;;
24617;SDS011;12762;51.730;5.356;2023-03-13T13:01:48;4.47;;;1.00;;
24617;SDS011;12762;51.730;5.356;2023-03-13T13:04:13;2.93;;;1.00;;
24617;SDS011;12762;51.730;5.356;2023-03-13T13:09:31;3.23;;;0.83;;
24617;SDS011;12762;51.730;5.356;2023-03-13T13:12:17;3.03;;;0.90;;
24617;SDS011;12762;51.730;5.356;2023-03-13T13:17:19;7.77;;;1.00;;
24617;SDS011;12762;51.730;5.356;2023-03-13T13:19:54;3.93;;;1.13;;
24617;SDS011;12762;51.730;5.356;2023-03-13T13:32:50;6.60;;;0.67;;
24617;SDS011;12762;51.730;5.356;2023-03-13T13:35:28;3.53;;;0.93;;
24617;SDS011;12762;51.730;5.356;2023-03-13T13:43:35;2.47;;;0.80;;
24617;SDS011;12762;51.730;5.356;2023-03-13T13:48:36;4.43;;;0.80;;
24617;SDS011;12762;51.730;5.356;2023-03-13T13:53:49;7.43;;;1.20;;
24617;SDS011;12762;51.730;5.356;2023-03-13T14:04:37;2.77;;;1.40;;
24617;SDS011;12762;51.730;5.356;2023-03-13T14:07:11;7.97;;;1.10;;
24617;SDS011;12762;51.730;5.356;2023-03-13T14:13:08;5.17;;;1.10;;
24617;SDS011;12762;51.730;5.356;2023-03-13T14:15:45;6.40;;;1.20;;
24617;SDS011;12762;51.730;5.356;2023-03-13T14:23:31;3.97;;;0.97;;
24617;SDS011;12762;51.730;5.356;2023-03-13T14:26:11;3.37;;;0.90;;
24617;SDS011;12762;51.730;5.356;2023-03-13T14:28:44;6.63;;;1.27;;
24617;SDS011;12762;51.730;5.356;2023-03-13T14:31:22;3.90;;;1.00;;
24617;SDS011;12762;51.730;5.356;2023-03-13T14:34:06;5.60;;;1.00;;
24617;SDS011;12762;51.730;5.356;2023-03-13T14:36:53;4.73;;;1.10;;
24617;SDS011;12762;51.730;5.356;2023-03-13T14:39:42;3.97;;;0.90;;
24617;SDS011;12762;51.730;5.356;2023-03-13T14:42:11;7.50;;;1.30;;
24617;SDS011;12762;51.730;5.356;2023-03-13T14:44:43;5.87;;;1.30;;
24617;SDS011;12762;51.730;5.356;2023-03-13T14:49:54;8.20;;;1.77;;
24617;SDS011;12762;51.730;5.356;2023-03-13T14:52:35;8.50;;;1.30;;
24617;SDS011;12762;51.730;5.356;2023-03-13T14:55:05;9.17;;;1.53;;
24617;SDS011;12762;51.730;5.356;2023-03-13T14:58:01;7.70;;;1.63;;
24617;SDS011;12762;51.730;5.356;2023-03-13T15:00:49;6.77;;;1.57;;
24617;SDS011;12762;51.730;5.356;2023-03-13T15:08:31;9.57;;;1.60;;
24617;SDS011;12762;51.730;5.356;2023-03-13T15:11:15;6.17;;;1.30;;
24617;SDS011;12762;51.730;5.356;2023-03-13T15:13:46;8.17;;;1.77;;
24617;SDS011;12762;51.730;5.356;2023-03-13T15:16:14;6.83;;;1.47;;
24617;SDS011;12762;51.730;5.356;2023-03-13T15:18:47;3.90;;;1.10;;
24617;SDS011;12762;51.730;5.356;2023-03-13T15:21:18;5.40;;;1.10;;
24617;SDS011;12762;51.730;5.356;2023-03-13T15:23:49;7.83;;;1.10;;
24617;SDS011;12762;51.730;5.356;2023-03-13T15:26:19;6.07;;;1.10;;
24617;SDS011;12762;51.730;5.356;2023-03-13T15:28:46;5.23;;;1.37;;
24617;SDS011;12762;51.730;5.356;2023-03-13T15:31:12;5.83;;;1.30;;
24617;SDS011;12762;51.730;5.356;2023-03-13T15:33:40;5.70;;;1.67;;
24617;SDS011;12762;51.730;5.356;2023-03-13T15:36:08;6.60;;;1.30;;
24617;SDS011;12762;51.730;5.356;2023-03-13T15:38:36;5.03;;;1.23;;
24617;SDS011;12762;51.730;5.356;2023-03-13T15:41:03;5.33;;;1.00;;
24617;SDS011;12762;51.730;5.356;2023-03-13T15:43:30;5.07;;;1.10;;
24617;SDS011;12762;51.730;5.356;2023-03-13T15:45:57;4.27;;;1.27;;
24617;SDS011;12762;51.730;5.356;2023-03-13T15:48:25;8.63;;;1.87;;
24617;SDS011;12762;51.730;5.356;2023-03-13T15:51:00;3.80;;;1.10;;
24617;SDS011;12762;51.730;5.356;2023-03-13T15:53:30;6.33;;;1.33;;
24617;SDS011;12762;51.730;5.356;2023-03-13T15:55:58;5.07;;;0.90;;
24617;SDS011;12762;51.730;5.356;2023-03-13T15:58:27;4.97;;;1.13;;
24617;SDS011;12762;51.730;5.356;2023-03-13T16:01:03;6.10;;;1.00;;
24617;SDS011;12762;51.730;5.356;2023-03-13T16:03:30;5.13;;;1.00;;
24617;SDS011;12762;51.730;5.356;2023-03-13T16:05:57;4.40;;;1.00;;
24617;SDS011;12762;51.730;5.356;2023-03-13T16:08:25;6.43;;;1.17;;
24617;SDS011;12762;51.730;5.356;2023-03-13T16:11:02;7.53;;;0.93;;
24617;SDS011;12762;51.730;5.356;2023-03-13T16:13:29;3.23;;;0.80;;
24617;SDS011;12762;51.730;5.356;2023-03-13T16:15:56;4.03;;;1.30;;
24617;SDS011;12762;51.730;5.356;2023-03-13T16:18:24;6.03;;;1.27;;
24617;SDS011;12762;51.730;5.356;2023-03-13T16:20:51;5.37;;;1.07;;
24617;SDS011;12762;51.730;5.356;2023-03-13T16:23:18;5.33;;;1.50;;
24617;SDS011;12762;51.730;5.356;2023-03-13T16:25:45;3.73;;;1.03;;
24617;SDS011;12762;51.730;5.356;2023-03-13T16:28:13;5.20;;;1.17;;
24617;SDS011;12762;51.730;5.356;2023-03-13T16:30:43;4.53;;;1.03;;
24617;SDS011;12762;51.730;5.356;2023-03-13T16:33:12;4.03;;;1.13;;
24617;SDS011;12762;51.730;5.356;2023-03-13T16:35:39;6.50;;;1.30;;
24617;SDS011;12762;51.730;5.356;2023-03-13T16:38:08;5.73;;;1.20;;
24617;SDS011;12762;51.730;5.356;2023-03-13T16:40:36;5.37;;;1.63;;
24617;SDS011;12762;51.730;5.356;2023-03-13T16:43:03;9.07;;;1.83;;
24617;SDS011;12762;51.730;5.356;2023-03-13T16:45:30;12.00;;;2.10;;
24617;SDS011;12762;51.730;5.356;2023-03-13T16:48:04;11.90;;;2.13;;
24617;SDS011;12762;51.730;5.356;2023-03-13T16:50:32;9.83;;;2.07;;
24617;SDS011;12762;51.730;5.356;2023-03-13T16:53:02;6.77;;;2.10;;
24617;SDS011;12762;51.730;5.356;2023-03-13T16:55:29;9.17;;;2.13;;
24617;SDS011;12762;51.730;5.356;2023-03-13T16:58:02;8.93;;;2.00;;
24617;SDS011;12762;51.730;5.356;2023-03-13T17:00:32;13.90;;;2.53;;
24617;SDS011;12762;51.730;5.356;2023-03-13T17:02:59;11.77;;;2.60;;
24617;SDS011;12762;51.730;5.356;2023-03-13T17:05:26;10.47;;;2.00;;
24617;SDS011;12762;51.730;5.356;2023-03-13T17:07:53;12.20;;;2.30;;
24617;SDS011;12762;51.730;5.356;2023-03-13T17:10:25;14.73;;;2.73;;
24617;SDS011;12762;51.730;5.356;2023-03-13T17:12:57;15.87;;;2.80;;
24617;SDS011;12762;51.730;5.356;2023-03-13T17:15:24;11.83;;;2.70;;
24617;SDS011;12762;51.730;5.356;2023-03-13T17:17:52;13.33;;;2.37;;
24617;SDS011;12762;51.730;5.356;2023-03-13T17:20:20;9.47;;;2.47;;
24617;SDS011;12762;51.730;5.356;2023-03-13T17:22:49;14.57;;;2.80;;
24617;SDS011;12762;51.730;5.356;2023-03-13T17:25:18;10.40;;;2.37;;
24617;SDS011;12762;51.730;5.356;2023-03-13T17:27:48;11.60;;;2.13;;
24617;SDS011;12762;51.730;5.356;2023-03-13T17:30:19;8.97;;;2.10;;
24617;SDS011;12762;51.730;5.356;2023-03-13T17:32:55;7.20;;;1.60;;
24617;SDS011;12762;51.730;5.356;2023-03-13T17:35:22;11.07;;;2.00;;